New River MCAS /H/ /Mccutcheon Fld/ Airport
KNCA : now visible

Airfield :











YOU CAN JOIN US ON...

 
LOGIN :

Register | Disclaimer

   EN    FR    IT 

 









Legend :    VFR   Marginal VFR   IFR   Intensive IFR   Very Intensive IFR
Visi :
Ceiling :
>= 8 km
>= 3000ft
5 to 8 km
1000 to 3000 ft
1500m to 5 km
500 to 1000 ft
800 to 1500m
200 to 500 ft
< 800m
< 200 ft
Symbols :   Thunderstorms  Fog  Heavy snow  Heavy precipitations  Wind > 20 kt






- Airport Elevation : 26 ft


KNCA - New River MCAS /H/ /Mccutcheon Fld/

CURRENT METAR :
  • 142056Z AUTO 26013G20KT 10SM CLR 15/09 A2956 RMK AO2 PK WND 25026/2007 SLP011 T01500089 53011

EXPIRED METARs :
  • 142028Z AUTO 25013G22KT 10SM SCT028 16/09 A2954 RMK AO2 PK WND 25026/2007 T01560089
  • 141956Z AUTO 28015G23KT 10SM BKN028 BKN033 17/10 A2954 RMK AO2 SLP005 T01720100
  • 141856Z AUTO 26012G16KT 10SM CLR 16/11 A2952 RMK AO2 SLP997 T01610106

TAF TAF KNCA
Valid from the 14 at 21:00 until the 15 at 21:00 UTC


1421/1521 25010KT 9999 SCT030 BKN080 QNH2951INS
FM150000 27010G15KT 9999 FEW030 QNH2968INS
FM150900 31008KT 9999 SKC QNH2994 T05/1507Z T19/1511Z



MET'MAP, your aeronautical weather chart ! - Copyright ORBIFLY December 2007 - Disclaimer

ORBIFLY MET'MAP TEAM :

Programming & Development : Alexandra Zaïnal
Concept & original design : Baudouin d'Aumeries
Assistance for programming : Marc-Olivier Méhu
Technical & hardware support : Manuel Goepfert

Contact : metmap@orbifly.com




SOURCES & CREDITS :

   NOAA       Earth
Advisory